Photometre #648[NE_1.6] Lille AOT

File : 20221126_648.hum

26/11/2022,08:33:38,TEMP=5.5,BA=5.60,STAT.A=3.0,ExtBa=12.29
26/11/2022,08:35:49,TEMP=5.9,BA=5.60,STAT.F,ExtBa=12.04
26/11/2022,08:52:50,TEMP=6.2,BA=5.48,STAT.D=3.0,ExtBa=12.11
26/11/2022,09:05:02,TEMP=5.9,BA=5.60,STAT.D=3.0,ExtBa=12.28
26/11/2022,09:20:02,TEMP=6.1,BA=5.56,STAT.D=3.0,ExtBa=12.31
26/11/2022,09:35:04,TEMP=6.6,BA=5.60,STAT.F,ExtBa=12.22
26/11/2022,09:53:28,TEMP=7.1,BA=5.48,STAT.D=3.0,ExtBa=12.17
26/11/2022,10:05:02,TEMP=7.5,BA=5.60,STAT.D=3.0,ExtBa=12.29
26/11/2022,10:20:02,TEMP=8.3,BA=5.56,STAT.D=3.0,ExtBa=12.32
26/11/2022,10:35:04,TEMP=8.9,BA=5.60,STAT.F,ExtBa=12.22
26/11/2022,10:53:26,TEMP=9.6,BA=5.44,STAT.D=3.0,ExtBa=12.10
26/11/2022,11:05:02,TEMP=10.0,BA=5.60,STAT.D=3.0,ExtBa=12.28
26/11/2022,11:20:02,TEMP=11.0,BA=5.56,STAT.D=3.0,ExtBa=12.30
26/11/2022,11:35:04,TEMP=11.9,BA=5.60,STAT.F,ExtBa=12.25
26/11/2022,12:00:34,TEMP=12.1,BA=5.44,STAT.D=3.0,ExtBa=12.03
26/11/2022,12:05:02,TEMP=12.1,BA=5.44,STAT.D=3.0,ExtBa=12.15
26/11/2022,12:20:02,TEMP=12.6,BA=5.56,STAT.D=3.0,ExtBa=12.27
26/11/2022,12:35:04,TEMP=12.2,BA=5.60,STAT.F,ExtBa=12.24
26/11/2022,12:52:49,TEMP=11.5,BA=5.44,STAT.D=3.0,ExtBa=12.00
26/11/2022,13:05:02,TEMP=10.8,BA=5.60,STAT.D=3.0,ExtBa=12.23
26/11/2022,13:20:02,TEMP=10.4,BA=5.56,STAT.D=3.0,ExtBa=12.28
26/11/2022,13:35:04,TEMP=10.2,BA=5.60,STAT.F,ExtBa=12.24
26/11/2022,13:52:34,TEMP=10.5,BA=5.44,STAT.D=3.0,ExtBa=11.98
26/11/2022,14:05:02,TEMP=10.0,BA=5.60,STAT.D=3.0,ExtBa=12.22
26/11/2022,14:20:02,TEMP=9.5,BA=5.56,STAT.D=3.0,ExtBa=12.26
26/11/2022,14:35:03,TEMP=9.0,BA=5.60,STAT.F,ExtBa=12.23
26/11/2022,14:37:03,TEMP=9.3,BA=5.60,STAT.A=3.0,ExtBa=12.23